sensor_id;sensor_type;location;lat;lon;timestamp;P1;durP1;ratioP1;P2;durP2;ratioP2
51260;SDS011;61705;46.228;24.812;2023-03-23T00:01:16;57.80;;;23.13;;
51260;SDS011;61705;46.228;24.812;2023-03-23T00:03:50;47.00;;;21.92;;
51260;SDS011;61705;46.228;24.812;2023-03-23T00:06:17;44.53;;;20.92;;
51260;SDS011;61705;46.228;24.812;2023-03-23T00:08:45;51.70;;;21.67;;
51260;SDS011;61705;46.228;24.812;2023-03-23T00:11:13;49.08;;;21.17;;
51260;SDS011;61705;46.228;24.812;2023-03-23T00:13:41;50.97;;;21.45;;
51260;SDS011;61705;46.228;24.812;2023-03-23T00:16:09;53.65;;;22.77;;
51260;SDS011;61705;46.228;24.812;2023-03-23T00:18:46;47.97;;;20.00;;
51260;SDS011;61705;46.228;24.812;2023-03-23T00:21:14;54.13;;;21.27;;
51260;SDS011;61705;46.228;24.812;2023-03-23T00:23:40;44.28;;;18.10;;
51260;SDS011;61705;46.228;24.812;2023-03-23T00:26:10;48.00;;;19.30;;
51260;SDS011;61705;46.228;24.812;2023-03-23T00:28:36;43.45;;;19.42;;
51260;SDS011;61705;46.228;24.812;2023-03-23T00:31:05;44.38;;;19.63;;
51260;SDS011;61705;46.228;24.812;2023-03-23T00:33:35;47.42;;;20.83;;
51260;SDS011;61705;46.228;24.812;2023-03-23T00:36:10;49.97;;;20.88;;
51260;SDS011;61705;46.228;24.812;2023-03-23T00:38:37;53.55;;;20.08;;
51260;SDS011;61705;46.228;24.812;2023-03-23T00:41:05;35.97;;;15.35;;
51260;SDS011;61705;46.228;24.812;2023-03-23T00:43:31;41.13;;;19.02;;
51260;SDS011;61705;46.228;24.812;2023-03-23T00:46:03;43.22;;;18.67;;
51260;SDS011;61705;46.228;24.812;2023-03-23T00:48:33;37.15;;;18.27;;
51260;SDS011;61705;46.228;24.812;2023-03-23T00:51:00;37.15;;;17.40;;
51260;SDS011;61705;46.228;24.812;2023-03-23T00:53:31;48.10;;;18.75;;
51260;SDS011;61705;46.228;24.812;2023-03-23T00:56:01;43.97;;;17.95;;
51260;SDS011;61705;46.228;24.812;2023-03-23T00:58:26;42.15;;;16.95;;
51260;SDS011;61705;46.228;24.812;2023-03-23T01:00:52;35.78;;;15.35;;
51260;SDS011;61705;46.228;24.812;2023-03-23T01:03:17;43.47;;;19.05;;
51260;SDS011;61705;46.228;24.812;2023-03-23T01:05:53;45.40;;;17.98;;
51260;SDS011;61705;46.228;24.812;2023-03-23T01:08:23;41.67;;;15.90;;
51260;SDS011;61705;46.228;24.812;2023-03-23T01:10:49;35.20;;;15.38;;
51260;SDS011;61705;46.228;24.812;2023-03-23T01:13:23;33.83;;;15.77;;
51260;SDS011;61705;46.228;24.812;2023-03-23T01:15:48;41.90;;;17.67;;
51260;SDS011;61705;46.228;24.812;2023-03-23T01:18:14;36.00;;;15.48;;
51260;SDS011;61705;46.228;24.812;2023-03-23T01:20:42;37.55;;;15.77;;
51260;SDS011;61705;46.228;24.812;2023-03-23T01:23:08;33.85;;;15.60;;
51260;SDS011;61705;46.228;24.812;2023-03-23T01:25:35;35.88;;;16.48;;
51260;SDS011;61705;46.228;24.812;2023-03-23T01:28:03;33.22;;;15.15;;
51260;SDS011;61705;46.228;24.812;2023-03-23T01:30:29;38.40;;;15.32;;
51260;SDS011;61705;46.228;24.812;2023-03-23T01:32:55;36.20;;;14.52;;
51260;SDS011;61705;46.228;24.812;2023-03-23T01:35:21;43.70;;;17.00;;
51260;SDS011;61705;46.228;24.812;2023-03-23T01:37:49;33.95;;;14.48;;
51260;SDS011;61705;46.228;24.812;2023-03-23T01:40:15;38.88;;;16.90;;
51260;SDS011;61705;46.228;24.812;2023-03-23T01:42:41;43.40;;;16.75;;
51260;SDS011;61705;46.228;24.812;2023-03-23T01:48:07;32.83;;;14.57;;
51260;SDS011;61705;46.228;24.812;2023-03-23T01:51:04;34.50;;;14.85;;
51260;SDS011;61705;46.228;24.812;2023-03-23T01:56:06;33.20;;;14.20;;
51260;SDS011;61705;46.228;24.812;2023-03-23T01:58:36;34.00;;;15.77;;
51260;SDS011;61705;46.228;24.812;2023-03-23T02:01:04;39.13;;;14.55;;
51260;SDS011;61705;46.228;24.812;2023-03-23T02:03:33;32.85;;;14.00;;
51260;SDS011;61705;46.228;24.812;2023-03-23T02:06:04;30.73;;;14.20;;
51260;SDS011;61705;46.228;24.812;2023-03-23T02:08:30;28.30;;;12.73;;
51260;SDS011;61705;46.228;24.812;2023-03-23T02:11:00;33.58;;;16.42;;
51260;SDS011;61705;46.228;24.812;2023-03-23T02:13:26;32.58;;;13.05;;
51260;SDS011;61705;46.228;24.812;2023-03-23T02:18:44;31.98;;;13.80;;
51260;SDS011;61705;46.228;24.812;2023-03-23T02:27:10;40.88;;;15.80;;
51260;SDS011;61705;46.228;24.812;2023-03-23T02:35:37;38.25;;;16.83;;
51260;SDS011;61705;46.228;24.812;2023-03-23T02:38:11;40.72;;;16.20;;
51260;SDS011;61705;46.228;24.812;2023-03-23T02:40:46;35.20;;;15.20;;
51260;SDS011;61705;46.228;24.812;2023-03-23T02:43:15;35.78;;;15.65;;
51260;SDS011;61705;46.228;24.812;2023-03-23T02:45:45;32.20;;;13.38;;
51260;SDS011;61705;46.228;24.812;2023-03-23T02:48:14;31.65;;;14.50;;
51260;SDS011;61705;46.228;24.812;2023-03-23T02:50:45;29.80;;;14.05;;
51260;SDS011;61705;46.228;24.812;2023-03-23T02:53:15;33.33;;;14.63;;
51260;SDS011;61705;46.228;24.812;2023-03-23T02:55:45;29.17;;;14.52;;
51260;SDS011;61705;46.228;24.812;2023-03-23T02:58:11;28.05;;;13.23;;
51260;SDS011;61705;46.228;24.812;2023-03-23T03:00:37;39.80;;;15.15;;
51260;SDS011;61705;46.228;24.812;2023-03-23T03:03:06;29.42;;;14.00;;
51260;SDS011;61705;46.228;24.812;2023-03-23T03:09:01;28.02;;;13.23;;
51260;SDS011;61705;46.228;24.812;2023-03-23T03:11:28;33.28;;;14.55;;
51260;SDS011;61705;46.228;24.812;2023-03-23T03:14:04;29.27;;;14.18;;
51260;SDS011;61705;46.228;24.812;2023-03-23T03:21:57;44.05;;;17.13;;
51260;SDS011;61705;46.228;24.812;2023-03-23T03:24:25;36.30;;;15.88;;
51260;SDS011;61705;46.228;24.812;2023-03-23T03:26:54;40.67;;;15.57;;
51260;SDS011;61705;46.228;24.812;2023-03-23T03:29:31;37.00;;;15.63;;
51260;SDS011;61705;46.228;24.812;2023-03-23T03:31:59;29.73;;;14.52;;
51260;SDS011;61705;46.228;24.812;2023-03-23T03:34:31;35.88;;;15.77;;
51260;SDS011;61705;46.228;24.812;2023-03-23T03:36:57;40.33;;;16.35;;
51260;SDS011;61705;46.228;24.812;2023-03-23T03:39:36;42.72;;;16.83;;
51260;SDS011;61705;46.228;24.812;2023-03-23T03:42:02;34.88;;;16.63;;
51260;SDS011;61705;46.228;24.812;2023-03-23T03:44:28;57.65;;;19.08;;
51260;SDS011;61705;46.228;24.812;2023-03-23T03:46:54;37.70;;;15.63;;
51260;SDS011;61705;46.228;24.812;2023-03-23T03:49:20;44.92;;;16.50;;
51260;SDS011;61705;46.228;24.812;2023-03-23T03:51:47;40.03;;;16.08;;
51260;SDS011;61705;46.228;24.812;2023-03-23T03:54:13;41.28;;;15.05;;
51260;SDS011;61705;46.228;24.812;2023-03-23T03:56:39;28.33;;;13.45;;
51260;SDS011;61705;46.228;24.812;2023-03-23T03:59:06;35.53;;;14.45;;
51260;SDS011;61705;46.228;24.812;2023-03-23T04:01:33;34.85;;;12.85;;
51260;SDS011;61705;46.228;24.812;2023-03-23T04:04:02;27.73;;;12.00;;
51260;SDS011;61705;46.228;24.812;2023-03-23T04:06:34;27.98;;;11.98;;
51260;SDS011;61705;46.228;24.812;2023-03-23T04:09:01;37.72;;;17.15;;
51260;SDS011;61705;46.228;24.812;2023-03-23T04:11:31;35.05;;;15.48;;
51260;SDS011;61705;46.228;24.812;2023-03-23T04:14:03;33.08;;;13.90;;
51260;SDS011;61705;46.228;24.812;2023-03-23T04:16:34;36.13;;;15.70;;
51260;SDS011;61705;46.228;24.812;2023-03-23T04:19:06;27.77;;;13.60;;
51260;SDS011;61705;46.228;24.812;2023-03-23T04:21:32;31.58;;;13.90;;
51260;SDS011;61705;46.228;24.812;2023-03-23T04:24:03;42.15;;;20.17;;
51260;SDS011;61705;46.228;24.812;2023-03-23T04:26:29;38.20;;;15.63;;
51260;SDS011;61705;46.228;24.812;2023-03-23T04:28:55;36.38;;;15.63;;
51260;SDS011;61705;46.228;24.812;2023-03-23T04:31:21;41.10;;;17.60;;
51260;SDS011;61705;46.228;24.812;2023-03-23T04:33:50;48.80;;;20.38;;
51260;SDS011;61705;46.228;24.812;2023-03-23T04:36:22;49.42;;;20.73;;
51260;SDS011;61705;46.228;24.812;2023-03-23T04:38:54;41.38;;;19.38;;
51260;SDS011;61705;46.228;24.812;2023-03-23T04:44:00;41.67;;;19.73;;
51260;SDS011;61705;46.228;24.812;2023-03-23T04:46:28;35.85;;;17.17;;
51260;SDS011;61705;46.228;24.812;2023-03-23T04:48:57;44.50;;;18.20;;
51260;SDS011;61705;46.228;24.812;2023-03-23T04:51:30;65.07;;;20.83;;
51260;SDS011;61705;46.228;24.812;2023-03-23T04:53:56;43.00;;;18.13;;
51260;SDS011;61705;46.228;24.812;2023-03-23T04:56:25;35.63;;;13.30;;
51260;SDS011;61705;46.228;24.812;2023-03-23T04:58:50;34.92;;;17.02;;
51260;SDS011;61705;46.228;24.812;2023-03-23T05:01:19;40.95;;;18.02;;
51260;SDS011;61705;46.228;24.812;2023-03-23T05:03:44;45.25;;;17.23;;
51260;SDS011;61705;46.228;24.812;2023-03-23T05:06:10;31.05;;;13.10;;
51260;SDS011;61705;46.228;24.812;2023-03-23T05:08:42;46.92;;;17.85;;
51260;SDS011;61705;46.228;24.812;2023-03-23T05:11:07;33.97;;;13.25;;
51260;SDS011;61705;46.228;24.812;2023-03-23T05:13:33;48.13;;;17.23;;
51260;SDS011;61705;46.228;24.812;2023-03-23T05:16:05;41.08;;;18.67;;
51260;SDS011;61705;46.228;24.812;2023-03-23T05:18:33;45.45;;;15.45;;
51260;SDS011;61705;46.228;24.812;2023-03-23T05:20:59;40.80;;;17.80;;
51260;SDS011;61705;46.228;24.812;2023-03-23T05:23:25;36.92;;;18.02;;
51260;SDS011;61705;46.228;24.812;2023-03-23T05:25:54;41.70;;;16.20;;
51260;SDS011;61705;46.228;24.812;2023-03-23T05:28:20;43.97;;;18.77;;
51260;SDS011;61705;46.228;24.812;2023-03-23T05:30:47;39.00;;;15.65;;
51260;SDS011;61705;46.228;24.812;2023-03-23T05:33:12;43.80;;;17.25;;
51260;SDS011;61705;46.228;24.812;2023-03-23T05:35:38;57.28;;;20.92;;
51260;SDS011;61705;46.228;24.812;2023-03-23T05:38:03;51.63;;;23.10;;
51260;SDS011;61705;46.228;24.812;2023-03-23T05:40:29;50.40;;;22.27;;
51260;SDS011;61705;46.228;24.812;2023-03-23T05:42:55;52.30;;;21.52;;
51260;SDS011;61705;46.228;24.812;2023-03-23T05:45:24;51.15;;;21.58;;
51260;SDS011;61705;46.228;24.812;2023-03-23T05:47:50;55.50;;;20.67;;
51260;SDS011;61705;46.228;24.812;2023-03-23T05:50:19;55.08;;;22.88;;
51260;SDS011;61705;46.228;24.812;2023-03-23T05:52:44;50.17;;;21.55;;
51260;SDS011;61705;46.228;24.812;2023-03-23T05:55:11;56.35;;;21.30;;
51260;SDS011;61705;46.228;24.812;2023-03-23T05:57:37;46.38;;;21.00;;
51260;SDS011;61705;46.228;24.812;2023-03-23T06:00:07;42.00;;;15.23;;
51260;SDS011;61705;46.228;24.812;2023-03-23T06:02:48;37.45;;;16.88;;
51260;SDS011;61705;46.228;24.812;2023-03-23T06:05:14;33.35;;;15.10;;
51260;SDS011;61705;46.228;24.812;2023-03-23T06:07:42;35.63;;;15.38;;
51260;SDS011;61705;46.228;24.812;2023-03-23T06:10:13;31.73;;;14.15;;
51260;SDS011;61705;46.228;24.812;2023-03-23T06:12:39;44.75;;;17.88;;
51260;SDS011;61705;46.228;24.812;2023-03-23T06:15:09;37.42;;;16.15;;
51260;SDS011;61705;46.228;24.812;2023-03-23T06:17:36;39.30;;;16.67;;
51260;SDS011;61705;46.228;24.812;2023-03-23T06:20:03;51.45;;;20.02;;
51260;SDS011;61705;46.228;24.812;2023-03-23T06:22:38;49.78;;;20.98;;
51260;SDS011;61705;46.228;24.812;2023-03-23T06:25:05;52.05;;;21.80;;
51260;SDS011;61705;46.228;24.812;2023-03-23T06:27:31;48.17;;;21.85;;
51260;SDS011;61705;46.228;24.812;2023-03-23T06:29:57;70.85;;;27.27;;
51260;SDS011;61705;46.228;24.812;2023-03-23T06:32:26;48.90;;;21.25;;
51260;SDS011;61705;46.228;24.812;2023-03-23T06:34:56;49.60;;;19.83;;
51260;SDS011;61705;46.228;24.812;2023-03-23T06:37:23;49.38;;;20.48;;
51260;SDS011;61705;46.228;24.812;2023-03-23T06:39:50;40.78;;;19.15;;
51260;SDS011;61705;46.228;24.812;2023-03-23T06:42:16;48.72;;;19.00;;
51260;SDS011;61705;46.228;24.812;2023-03-23T06:44:47;44.50;;;18.27;;
51260;SDS011;61705;46.228;24.812;2023-03-23T06:47:12;42.35;;;18.08;;
51260;SDS011;61705;46.228;24.812;2023-03-23T06:49:38;33.58;;;17.27;;
51260;SDS011;61705;46.228;24.812;2023-03-23T06:52:03;37.43;;;16.80;;
51260;SDS011;61705;46.228;24.812;2023-03-23T06:54:34;44.78;;;17.52;;
51260;SDS011;61705;46.228;24.812;2023-03-23T06:57:02;35.47;;;16.45;;
51260;SDS011;61705;46.228;24.812;2023-03-23T06:59:30;36.58;;;16.33;;
51260;SDS011;61705;46.228;24.812;2023-03-23T07:01:56;28.52;;;12.95;;
51260;SDS011;61705;46.228;24.812;2023-03-23T07:04:24;36.78;;;15.23;;
51260;SDS011;61705;46.228;24.812;2023-03-23T07:06:49;42.42;;;16.88;;
51260;SDS011;61705;46.228;24.812;2023-03-23T07:09:15;34.67;;;15.52;;
51260;SDS011;61705;46.228;24.812;2023-03-23T07:11:44;34.55;;;16.65;;
51260;SDS011;61705;46.228;24.812;2023-03-23T07:14:12;41.35;;;15.18;;
51260;SDS011;61705;46.228;24.812;2023-03-23T07:16:38;35.08;;;15.38;;
51260;SDS011;61705;46.228;24.812;2023-03-23T07:19:04;50.30;;;18.33;;
51260;SDS011;61705;46.228;24.812;2023-03-23T07:21:29;35.08;;;15.52;;
51260;SDS011;61705;46.228;24.812;2023-03-23T07:23:57;41.35;;;16.10;;
51260;SDS011;61705;46.228;24.812;2023-03-23T07:26:25;23.42;;;12.23;;
51260;SDS011;61705;46.228;24.812;2023-03-23T07:28:50;40.88;;;18.27;;
51260;SDS011;61705;46.228;24.812;2023-03-23T07:31:16;42.60;;;17.17;;
51260;SDS011;61705;46.228;24.812;2023-03-23T07:33:42;37.90;;;17.45;;
51260;SDS011;61705;46.228;24.812;2023-03-23T07:36:13;33.63;;;15.45;;
51260;SDS011;61705;46.228;24.812;2023-03-23T07:38:39;37.65;;;17.25;;
51260;SDS011;61705;46.228;24.812;2023-03-23T07:41:05;28.92;;;14.82;;
51260;SDS011;61705;46.228;24.812;2023-03-23T07:43:34;33.33;;;15.57;;
51260;SDS011;61705;46.228;24.812;2023-03-23T07:45:59;30.30;;;15.02;;
51260;SDS011;61705;46.228;24.812;2023-03-23T07:48:28;30.42;;;15.93;;
51260;SDS011;61705;46.228;24.812;2023-03-23T07:50:54;39.15;;;17.45;;
51260;SDS011;61705;46.228;24.812;2023-03-23T08:39:56;35.70;;;18.73;;
51260;SDS011;61705;46.228;24.812;2023-03-23T08:42:28;35.65;;;17.50;;
51260;SDS011;61705;46.228;24.812;2023-03-23T08:44:54;34.00;;;17.17;;
51260;SDS011;61705;46.228;24.812;2023-03-23T08:47:26;44.43;;;18.57;;
51260;SDS011;61705;46.228;24.812;2023-03-23T10:01:55;24.70;;;11.50;;
51260;SDS011;61705;46.228;24.812;2023-03-23T10:22:59;28.15;;;9.07;;
51260;SDS011;61705;46.228;24.812;2023-03-23T10:25:28;20.25;;;8.32;;
51260;SDS011;61705;46.228;24.812;2023-03-23T10:30:37;20.17;;;8.73;;
51260;SDS011;61705;46.228;24.812;2023-03-23T10:33:15;19.70;;;8.50;;
51260;SDS011;61705;46.228;24.812;2023-03-23T10:38:29;16.30;;;8.60;;
51260;SDS011;61705;46.228;24.812;2023-03-23T10:41:12;12.25;;;7.28;;
51260;SDS011;61705;46.228;24.812;2023-03-23T11:46:41;16.48;;;6.70;;
51260;SDS011;61705;46.228;24.812;2023-03-23T12:08:11;9.70;;;6.40;;
51260;SDS011;61705;46.228;24.812;2023-03-23T12:11:07;11.85;;;5.93;;
51260;SDS011;61705;46.228;24.812;2023-03-23T12:16:57;12.95;;;6.30;;
51260;SDS011;61705;46.228;24.812;2023-03-23T12:34:49;10.82;;;5.35;;
51260;SDS011;61705;46.228;24.812;2023-03-23T12:47:55;14.20;;;5.65;;
51260;SDS011;61705;46.228;24.812;2023-03-23T12:53:00;9.45;;;5.43;;
51260;SDS011;61705;46.228;24.812;2023-03-23T12:55:47;10.18;;;5.90;;
51260;SDS011;61705;46.228;24.812;2023-03-23T12:58:19;9.95;;;5.60;;
51260;SDS011;61705;46.228;24.812;2023-03-23T13:01:05;11.85;;;5.68;;
51260;SDS011;61705;46.228;24.812;2023-03-23T13:03:41;9.93;;;5.32;;
51260;SDS011;61705;46.228;24.812;2023-03-23T13:06:19;17.33;;;7.00;;
51260;SDS011;61705;46.228;24.812;2023-03-23T13:11:56;22.75;;;6.70;;
51260;SDS011;61705;46.228;24.812;2023-03-23T13:23:19;17.27;;;5.72;;
51260;SDS011;61705;46.228;24.812;2023-03-23T13:25:49;10.82;;;5.28;;
51260;SDS011;61705;46.228;24.812;2023-03-23T13:28:48;44.65;;;7.70;;
51260;SDS011;61705;46.228;24.812;2023-03-23T13:31:20;11.40;;;5.20;;
51260;SDS011;61705;46.228;24.812;2023-03-23T13:33:57;8.68;;;4.72;;
51260;SDS011;61705;46.228;24.812;2023-03-23T13:36:41;7.78;;;4.40;;
51260;SDS011;61705;46.228;24.812;2023-03-23T13:39:21;13.38;;;4.68;;
51260;SDS011;61705;46.228;24.812;2023-03-23T13:59:58;6.38;;;3.75;;
51260;SDS011;61705;46.228;24.812;2023-03-23T14:02:35;21.73;;;5.90;;
51260;SDS011;61705;46.228;24.812;2023-03-23T14:05:19;11.93;;;5.53;;
51260;SDS011;61705;46.228;24.812;2023-03-23T14:10:31;10.10;;;4.57;;
51260;SDS011;61705;46.228;24.812;2023-03-23T14:13:03;8.07;;;4.13;;
51260;SDS011;61705;46.228;24.812;2023-03-23T14:15:37;9.07;;;4.32;;
51260;SDS011;61705;46.228;24.812;2023-03-23T14:18:11;6.97;;;3.80;;
51260;SDS011;61705;46.228;24.812;2023-03-23T14:20:40;7.90;;;4.30;;
51260;SDS011;61705;46.228;24.812;2023-03-23T14:23:17;11.65;;;3.83;;
51260;SDS011;61705;46.228;24.812;2023-03-23T14:25:44;10.18;;;3.83;;
51260;SDS011;61705;46.228;24.812;2023-03-23T14:28:17;12.35;;;6.10;;
51260;SDS011;61705;46.228;24.812;2023-03-23T14:30:46;15.50;;;7.20;;
51260;SDS011;61705;46.228;24.812;2023-03-23T14:33:17;21.25;;;7.35;;
51260;SDS011;61705;46.228;24.812;2023-03-23T14:35:49;8.25;;;4.28;;
51260;SDS011;61705;46.228;24.812;2023-03-23T14:38:17;7.00;;;4.00;;
51260;SDS011;61705;46.228;24.812;2023-03-23T14:40:48;8.70;;;4.22;;
51260;SDS011;61705;46.228;24.812;2023-03-23T14:43:15;6.32;;;3.50;;
51260;SDS011;61705;46.228;24.812;2023-03-23T14:45:45;8.23;;;4.50;;
51260;SDS011;61705;46.228;24.812;2023-03-23T14:48:15;25.08;;;7.32;;
51260;SDS011;61705;46.228;24.812;2023-03-23T14:50:47;11.23;;;5.40;;
51260;SDS011;61705;46.228;24.812;2023-03-23T14:55:59;14.35;;;7.40;;
51260;SDS011;61705;46.228;24.812;2023-03-23T14:58:30;35.40;;;17.75;;
51260;SDS011;61705;46.228;24.812;2023-03-23T15:00:58;11.52;;;5.00;;
51260;SDS011;61705;46.228;24.812;2023-03-23T15:06:55;10.50;;;3.95;;
51260;SDS011;61705;46.228;24.812;2023-03-23T15:09:29;6.20;;;4.10;;
51260;SDS011;61705;46.228;24.812;2023-03-23T15:12:02;6.82;;;3.85;;
51260;SDS011;61705;46.228;24.812;2023-03-23T15:17:11;7.15;;;4.15;;
51260;SDS011;61705;46.228;24.812;2023-03-23T15:20:27;17.73;;;7.00;;
51260;SDS011;61705;46.228;24.812;2023-03-23T15:23:05;8.05;;;3.83;;
51260;SDS011;61705;46.228;24.812;2023-03-23T15:25:39;6.38;;;3.75;;
51260;SDS011;61705;46.228;24.812;2023-03-23T15:28:17;21.98;;;5.68;;
51260;SDS011;61705;46.228;24.812;2023-03-23T15:30:50;7.05;;;3.85;;
51260;SDS011;61705;46.228;24.812;2023-03-23T15:33:18;14.65;;;4.38;;
51260;SDS011;61705;46.228;24.812;2023-03-23T15:35:51;9.40;;;5.53;;
51260;SDS011;61705;46.228;24.812;2023-03-23T15:38:31;47.58;;;7.65;;
51260;SDS011;61705;46.228;24.812;2023-03-23T15:41:02;15.05;;;5.95;;
51260;SDS011;61705;46.228;24.812;2023-03-23T15:44:18;12.13;;;6.30;;
51260;SDS011;61705;46.228;24.812;2023-03-23T15:46:47;11.43;;;6.72;;
51260;SDS011;61705;46.228;24.812;2023-03-23T15:49:20;18.17;;;5.70;;
51260;SDS011;61705;46.228;24.812;2023-03-23T15:51:52;66.95;;;33.20;;
51260;SDS011;61705;46.228;24.812;2023-03-23T15:54:20;23.45;;;9.25;;
51260;SDS011;61705;46.228;24.812;2023-03-23T15:56:45;33.17;;;12.25;;
51260;SDS011;61705;46.228;24.812;2023-03-23T15:59:12;31.55;;;12.35;;
51260;SDS011;61705;46.228;24.812;2023-03-23T16:01:39;30.38;;;11.02;;
51260;SDS011;61705;46.228;24.812;2023-03-23T16:04:12;20.08;;;7.85;;
51260;SDS011;61705;46.228;24.812;2023-03-23T16:06:44;55.10;;;27.52;;
51260;SDS011;61705;46.228;24.812;2023-03-23T16:09:17;41.53;;;18.92;;
51260;SDS011;61705;46.228;24.812;2023-03-23T16:11:46;89.90;;;35.15;;
51260;SDS011;61705;46.228;24.812;2023-03-23T16:14:13;50.05;;;22.08;;
51260;SDS011;61705;46.228;24.812;2023-03-23T16:16:45;83.50;;;28.77;;
51260;SDS011;61705;46.228;24.812;2023-03-23T16:19:16;35.90;;;13.27;;
51260;SDS011;61705;46.228;24.812;2023-03-23T16:21:51;23.42;;;8.85;;
51260;SDS011;61705;46.228;24.812;2023-03-23T16:27:01;33.85;;;7.10;;
51260;SDS011;61705;46.228;24.812;2023-03-23T16:29:30;19.45;;;6.22;;
51260;SDS011;61705;46.228;24.812;2023-03-23T16:32:05;25.70;;;9.10;;
51260;SDS011;61705;46.228;24.812;2023-03-23T16:34:34;19.02;;;9.05;;
51260;SDS011;61705;46.228;24.812;2023-03-23T16:37:03;24.83;;;9.73;;
51260;SDS011;61705;46.228;24.812;2023-03-23T16:39:32;33.05;;;15.80;;
51260;SDS011;61705;46.228;24.812;2023-03-23T16:42:02;34.60;;;15.20;;
51260;SDS011;61705;46.228;24.812;2023-03-23T16:44:34;37.63;;;13.93;;
51260;SDS011;61705;46.228;24.812;2023-03-23T16:47:01;33.88;;;10.10;;
51260;SDS011;61705;46.228;24.812;2023-03-23T16:49:30;32.65;;;9.73;;
51260;SDS011;61705;46.228;24.812;2023-03-23T16:51:58;23.35;;;10.68;;
51260;SDS011;61705;46.228;24.812;2023-03-23T16:54:29;26.92;;;10.48;;
51260;SDS011;61705;46.228;24.812;2023-03-23T16:57:05;29.45;;;13.15;;
51260;SDS011;61705;46.228;24.812;2023-03-23T16:59:32;21.25;;;9.90;;
51260;SDS011;61705;46.228;24.812;2023-03-23T17:02:02;26.10;;;8.75;;
51260;SDS011;61705;46.228;24.812;2023-03-23T17:04:32;18.15;;;7.32;;
51260;SDS011;61705;46.228;24.812;2023-03-23T17:06:59;17.95;;;6.93;;
51260;SDS011;61705;46.228;24.812;2023-03-23T17:09:26;15.63;;;7.18;;
51260;SDS011;61705;46.228;24.812;2023-03-23T17:11:53;25.77;;;9.82;;
51260;SDS011;61705;46.228;24.812;2023-03-23T17:14:22;26.67;;;10.35;;
51260;SDS011;61705;46.228;24.812;2023-03-23T17:16:49;44.13;;;13.70;;
51260;SDS011;61705;46.228;24.812;2023-03-23T17:19:18;33.85;;;13.13;;
51260;SDS011;61705;46.228;24.812;2023-03-23T17:21:48;35.78;;;15.43;;
51260;SDS011;61705;46.228;24.812;2023-03-23T17:24:15;33.60;;;14.23;;
51260;SDS011;61705;46.228;24.812;2023-03-23T17:26:42;22.80;;;11.65;;
51260;SDS011;61705;46.228;24.812;2023-03-23T17:29:13;21.30;;;8.77;;
51260;SDS011;61705;46.228;24.812;2023-03-23T17:31:48;15.18;;;8.93;;
51260;SDS011;61705;46.228;24.812;2023-03-23T17:34:21;24.42;;;10.60;;
51260;SDS011;61705;46.228;24.812;2023-03-23T17:36:51;16.23;;;7.55;;
51260;SDS011;61705;46.228;24.812;2023-03-23T17:39:29;22.20;;;7.70;;
51260;SDS011;61705;46.228;24.812;2023-03-23T17:42:08;15.80;;;5.90;;
51260;SDS011;61705;46.228;24.812;2023-03-23T17:44:35;21.65;;;8.45;;
51260;SDS011;61705;46.228;24.812;2023-03-23T17:47:02;14.88;;;7.03;;
51260;SDS011;61705;46.228;24.812;2023-03-23T17:49:31;24.85;;;7.75;;
51260;SDS011;61705;46.228;24.812;2023-03-23T17:52:00;19.98;;;8.70;;
51260;SDS011;61705;46.228;24.812;2023-03-23T17:54:26;15.98;;;8.02;;
51260;SDS011;61705;46.228;24.812;2023-03-23T17:56:54;21.70;;;7.88;;
51260;SDS011;61705;46.228;24.812;2023-03-23T17:59:24;12.85;;;6.82;;
51260;SDS011;61705;46.228;24.812;2023-03-23T18:01:56;28.60;;;9.13;;
51260;SDS011;61705;46.228;24.812;2023-03-23T18:04:23;42.25;;;9.30;;
51260;SDS011;61705;46.228;24.812;2023-03-23T18:06:55;158.60;;;15.23;;
51260;SDS011;61705;46.228;24.812;2023-03-23T18:09:27;40.00;;;12.40;;
51260;SDS011;61705;46.228;24.812;2023-03-23T18:12:03;43.88;;;12.88;;
51260;SDS011;61705;46.228;24.812;2023-03-23T18:14:35;69.30;;;23.63;;
51260;SDS011;61705;46.228;24.812;2023-03-23T18:17:05;27.35;;;11.75;;
51260;SDS011;61705;46.228;24.812;2023-03-23T18:19:34;46.80;;;15.18;;
51260;SDS011;61705;46.228;24.812;2023-03-23T18:22:05;157.82;;;51.92;;
51260;SDS011;61705;46.228;24.812;2023-03-23T18:24:33;255.70;;;75.50;;
51260;SDS011;61705;46.228;24.812;2023-03-23T18:26:59;143.55;;;48.10;;
51260;SDS011;61705;46.228;24.812;2023-03-23T18:29:27;91.10;;;32.60;;
51260;SDS011;61705;46.228;24.812;2023-03-23T18:31:54;44.83;;;19.88;;
51260;SDS011;61705;46.228;24.812;2023-03-23T18:34:21;49.90;;;18.35;;
51260;SDS011;61705;46.228;24.812;2023-03-23T18:36:47;99.50;;;37.15;;
51260;SDS011;61705;46.228;24.812;2023-03-23T18:39:14;134.13;;;47.97;;
51260;SDS011;61705;46.228;24.812;2023-03-23T18:41:41;82.15;;;31.92;;
51260;SDS011;61705;46.228;24.812;2023-03-23T18:44:08;93.88;;;35.83;;
51260;SDS011;61705;46.228;24.812;2023-03-23T18:46:35;61.88;;;24.88;;
51260;SDS011;61705;46.228;24.812;2023-03-23T18:49:02;41.38;;;17.10;;
51260;SDS011;61705;46.228;24.812;2023-03-23T18:51:30;32.67;;;13.55;;
51260;SDS011;61705;46.228;24.812;2023-03-23T18:53:57;38.30;;;14.68;;
51260;SDS011;61705;46.228;24.812;2023-03-23T18:56:24;46.33;;;18.15;;
51260;SDS011;61705;46.228;24.812;2023-03-23T18:58:51;46.53;;;19.40;;
51260;SDS011;61705;46.228;24.812;2023-03-23T19:01:18;76.65;;;31.17;;
51260;SDS011;61705;46.228;24.812;2023-03-23T19:03:46;97.18;;;48.05;;
51260;SDS011;61705;46.228;24.812;2023-03-23T19:06:14;52.83;;;24.88;;
51260;SDS011;61705;46.228;24.812;2023-03-23T19:08:46;54.10;;;22.48;;
51260;SDS011;61705;46.228;24.812;2023-03-23T19:11:14;45.28;;;18.58;;
51260;SDS011;61705;46.228;24.812;2023-03-23T19:13:42;73.97;;;22.00;;
51260;SDS011;61705;46.228;24.812;2023-03-23T19:16:23;95.45;;;33.35;;
51260;SDS011;61705;46.228;24.812;2023-03-23T19:18:50;59.70;;;24.13;;
51260;SDS011;61705;46.228;24.812;2023-03-23T19:21:17;75.40;;;35.65;;
51260;SDS011;61705;46.228;24.812;2023-03-23T19:23:44;88.38;;;40.35;;
51260;SDS011;61705;46.228;24.812;2023-03-23T19:26:33;66.85;;;29.10;;
51260;SDS011;61705;46.228;24.812;2023-03-23T19:29:24;34.85;;;16.17;;
51260;SDS011;61705;46.228;24.812;2023-03-23T19:32:05;47.78;;;18.90;;
51260;SDS011;61705;46.228;24.812;2023-03-23T19:34:33;32.40;;;13.02;;
51260;SDS011;61705;46.228;24.812;2023-03-23T19:37:00;73.43;;;30.90;;
51260;SDS011;61705;46.228;24.812;2023-03-23T19:39:31;55.92;;;27.75;;
51260;SDS011;61705;46.228;24.812;2023-03-23T19:41:59;73.38;;;30.35;;
51260;SDS011;61705;46.228;24.812;2023-03-23T19:44:26;93.68;;;31.98;;
51260;SDS011;61705;46.228;24.812;2023-03-23T19:46:54;60.05;;;28.45;;
51260;SDS011;61705;46.228;24.812;2023-03-23T19:49:21;52.38;;;27.52;;
51260;SDS011;61705;46.228;24.812;2023-03-23T19:51:50;51.20;;;25.50;;
51260;SDS011;61705;46.228;24.812;2023-03-23T19:54:34;59.17;;;27.63;;
51260;SDS011;61705;46.228;24.812;2023-03-23T19:57:01;56.45;;;27.58;;
51260;SDS011;61705;46.228;24.812;2023-03-23T19:59:29;59.58;;;28.40;;
51260;SDS011;61705;46.228;24.812;2023-03-23T20:01:56;64.68;;;28.77;;